sensor_id;sensor_type;location;lat;lon;timestamp;temperature;humidity
35746;DHT22;21870;42.812;74.628;2024-03-23T00:53:53;7.40;99.90
35746;DHT22;21870;42.812;74.628;2024-03-23T00:56:19;7.40;99.90
35746;DHT22;21870;42.812;74.628;2024-03-23T00:58:45;7.40;99.90
35746;DHT22;21870;42.812;74.628;2024-03-23T01:01:11;7.40;99.90
35746;DHT22;21870;42.812;74.628;2024-03-23T01:03:37;7.50;99.90
35746;DHT22;21870;42.812;74.628;2024-03-23T01:06:03;7.60;99.90
35746;DHT22;21870;42.812;74.628;2024-03-23T01:08:29;7.40;99.90
35746;DHT22;21870;42.812;74.628;2024-03-23T01:10:59;7.40;99.90
35746;DHT22;21870;42.812;74.628;2024-03-23T01:13:26;7.50;99.90
35746;DHT22;21870;42.812;74.628;2024-03-23T01:15:53;7.50;99.90
35746;DHT22;21870;42.812;74.628;2024-03-23T01:18:21;7.50;99.90
35746;DHT22;21870;42.812;74.628;2024-03-23T01:20:47;7.60;99.90
35746;DHT22;21870;42.812;74.628;2024-03-23T01:23:13;7.60;99.90
35746;DHT22;21870;42.812;74.628;2024-03-23T01:25:40;7.70;99.90
35746;DHT22;21870;42.812;74.628;2024-03-23T01:28:07;7.70;99.90
35746;DHT22;21870;42.812;74.628;2024-03-23T01:30:34;7.70;99.90
35746;DHT22;21870;42.812;74.628;2024-03-23T01:33:00;7.70;99.90
35746;DHT22;21870;42.812;74.628;2024-03-23T01:35:26;7.70;99.90
35746;DHT22;21870;42.812;74.628;2024-03-23T01:37:53;7.80;99.90
35746;DHT22;21870;42.812;74.628;2024-03-23T01:40:19;7.80;99.90
35746;DHT22;21870;42.812;74.628;2024-03-23T01:42:58;7.90;99.90
35746;DHT22;21870;42.812;74.628;2024-03-23T01:45:27;7.90;99.90
35746;DHT22;21870;42.812;74.628;2024-03-23T01:47:53;8.00;99.90
35746;DHT22;21870;42.812;74.628;2024-03-23T01:50:20;8.00;99.90
35746;DHT22;21870;42.812;74.628;2024-03-23T01:52:47;8.00;99.90
35746;DHT22;21870;42.812;74.628;2024-03-23T01:55:14;8.10;99.90
35746;DHT22;21870;42.812;74.628;2024-03-23T01:57:40;8.00;99.90
35746;DHT22;21870;42.812;74.628;2024-03-23T02:00:06;7.90;99.90
35746;DHT22;21870;42.812;74.628;2024-03-23T02:02:33;7.80;99.90
35746;DHT22;21870;42.812;74.628;2024-03-23T02:04:59;7.70;99.90
35746;DHT22;21870;42.812;74.628;2024-03-23T02:07:25;7.70;99.90
35746;DHT22;21870;42.812;74.628;2024-03-23T02:09:51;7.80;99.90
35746;DHT22;21870;42.812;74.628;2024-03-23T02:12:18;7.90;99.90
35746;DHT22;21870;42.812;74.628;2024-03-23T02:14:44;7.80;99.90
35746;DHT22;21870;42.812;74.628;2024-03-23T02:17:10;7.80;99.90
35746;DHT22;21870;42.812;74.628;2024-03-23T02:19:36;7.90;99.90
35746;DHT22;21870;42.812;74.628;2024-03-23T02:22:02;8.00;99.90
35746;DHT22;21870;42.812;74.628;2024-03-23T02:24:29;8.00;99.90
35746;DHT22;21870;42.812;74.628;2024-03-23T02:26:55;8.00;99.90
35746;DHT22;21870;42.812;74.628;2024-03-23T02:29:21;8.00;99.90
35746;DHT22;21870;42.812;74.628;2024-03-23T02:31:47;8.10;99.90
35746;DHT22;21870;42.812;74.628;2024-03-23T02:34:13;8.20;99.90
35746;DHT22;21870;42.812;74.628;2024-03-23T02:36:39;8.20;99.90
35746;DHT22;21870;42.812;74.628;2024-03-23T02:39:05;8.30;99.90
35746;DHT22;21870;42.812;74.628;2024-03-23T02:41:32;8.30;99.90
35746;DHT22;21870;42.812;74.628;2024-03-23T02:43:58;8.40;99.90
35746;DHT22;21870;42.812;74.628;2024-03-23T02:46:24;8.50;99.90
35746;DHT22;21870;42.812;74.628;2024-03-23T02:48:50;8.60;99.90
35746;DHT22;21870;42.812;74.628;2024-03-23T02:51:16;8.80;99.90
35746;DHT22;21870;42.812;74.628;2024-03-23T02:53:42;9.00;99.90
35746;DHT22;21870;42.812;74.628;2024-03-23T02:56:08;9.20;99.90
35746;DHT22;21870;42.812;74.628;2024-03-23T02:58:34;9.40;99.90
35746;DHT22;21870;42.812;74.628;2024-03-23T03:01:00;9.70;99.90
35746;DHT22;21870;42.812;74.628;2024-03-23T03:03:26;9.90;99.90
35746;DHT22;21870;42.812;74.628;2024-03-23T03:05:56;10.10;99.90
35746;DHT22;21870;42.812;74.628;2024-03-23T03:08:22;10.20;99.90
35746;DHT22;21870;42.812;74.628;2024-03-23T03:10:48;10.30;99.90
35746;DHT22;21870;42.812;74.628;2024-03-23T03:13:14;10.50;99.90
35746;DHT22;21870;42.812;74.628;2024-03-23T03:15:43;10.70;99.90
35746;DHT22;21870;42.812;74.628;2024-03-23T03:18:09;10.90;99.90
35746;DHT22;21870;42.812;74.628;2024-03-23T03:20:39;11.00;99.90
35746;DHT22;21870;42.812;74.628;2024-03-23T03:23:06;11.30;99.90
35746;DHT22;21870;42.812;74.628;2024-03-23T03:25:32;11.50;99.90
35746;DHT22;21870;42.812;74.628;2024-03-23T03:27:59;11.60;99.90
35746;DHT22;21870;42.812;74.628;2024-03-23T03:30:25;11.80;99.90
35746;DHT22;21870;42.812;74.628;2024-03-23T03:32:53;12.00;99.90
35746;DHT22;21870;42.812;74.628;2024-03-23T03:35:20;12.20;99.90
35746;DHT22;21870;42.812;74.628;2024-03-23T03:37:46;12.50;99.90
35746;DHT22;21870;42.812;74.628;2024-03-23T03:40:13;12.60;99.90
35746;DHT22;21870;42.812;74.628;2024-03-23T03:42:41;12.70;99.90
35746;DHT22;21870;42.812;74.628;2024-03-23T03:45:07;12.90;99.90
35746;DHT22;21870;42.812;74.628;2024-03-23T03:47:33;13.00;99.90
35746;DHT22;21870;42.812;74.628;2024-03-23T03:49:59;13.20;99.90
35746;DHT22;21870;42.812;74.628;2024-03-23T03:52:26;13.30;99.90
35746;DHT22;21870;42.812;74.628;2024-03-23T03:57:20;13.60;99.90
35746;DHT22;21870;42.812;74.628;2024-03-23T03:59:46;13.70;99.90
35746;DHT22;21870;42.812;74.628;2024-03-23T04:02:12;13.80;99.90
35746;DHT22;21870;42.812;74.628;2024-03-23T04:04:38;14.00;99.90
35746;DHT22;21870;42.812;74.628;2024-03-23T04:07:04;14.10;99.90
35746;DHT22;21870;42.812;74.628;2024-03-23T04:09:30;14.10;99.90
35746;DHT22;21870;42.812;74.628;2024-03-23T04:11:56;14.10;99.90
35746;DHT22;21870;42.812;74.628;2024-03-23T04:14:23;14.30;99.90
35746;DHT22;21870;42.812;74.628;2024-03-23T04:16:49;14.50;99.90
35746;DHT22;21870;42.812;74.628;2024-03-23T04:19:15;14.50;99.90
35746;DHT22;21870;42.812;74.628;2024-03-23T04:21:41;14.50;99.90
35746;DHT22;21870;42.812;74.628;2024-03-23T04:24:07;14.60;99.90
35746;DHT22;21870;42.812;74.628;2024-03-23T04:26:43;14.50;99.90
35746;DHT22;21870;42.812;74.628;2024-03-23T04:29:09;14.60;99.90
35746;DHT22;21870;42.812;74.628;2024-03-23T04:31:35;14.80;99.90
35746;DHT22;21870;42.812;74.628;2024-03-23T04:34:02;14.90;99.90
35746;DHT22;21870;42.812;74.628;2024-03-23T04:36:28;15.00;99.90
35746;DHT22;21870;42.812;74.628;2024-03-23T04:38:54;15.10;99.90
35746;DHT22;21870;42.812;74.628;2024-03-23T04:41:20;15.10;99.90
35746;DHT22;21870;42.812;74.628;2024-03-23T04:43:46;15.30;99.90
35746;DHT22;21870;42.812;74.628;2024-03-23T04:46:12;15.40;99.90
35746;DHT22;21870;42.812;74.628;2024-03-23T04:48:38;15.50;99.90
35746;DHT22;21870;42.812;74.628;2024-03-23T04:51:04;15.50;99.90
35746;DHT22;21870;42.812;74.628;2024-03-23T04:53:30;15.80;99.90
35746;DHT22;21870;42.812;74.628;2024-03-23T04:55:57;15.80;99.90
35746;DHT22;21870;42.812;74.628;2024-03-23T04:58:25;15.70;99.90
35746;DHT22;21870;42.812;74.628;2024-03-23T05:00:55;15.90;99.90
35746;DHT22;21870;42.812;74.628;2024-03-23T05:03:21;15.80;99.90
35746;DHT22;21870;42.812;74.628;2024-03-23T05:05:48;15.90;99.90
35746;DHT22;21870;42.812;74.628;2024-03-23T05:08:14;15.90;99.90
35746;DHT22;21870;42.812;74.628;2024-03-23T05:10:42;15.80;99.90
35746;DHT22;21870;42.812;74.628;2024-03-23T05:13:08;16.00;99.90
35746;DHT22;21870;42.812;74.628;2024-03-23T05:15:34;16.10;99.90
35746;DHT22;21870;42.812;74.628;2024-03-23T05:18:00;16.20;99.90
35746;DHT22;21870;42.812;74.628;2024-03-23T05:20:27;16.50;99.90
35746;DHT22;21870;42.812;74.628;2024-03-23T05:22:54;16.80;99.90
35746;DHT22;21870;42.812;74.628;2024-03-23T05:25:20;16.70;99.90
35746;DHT22;21870;42.812;74.628;2024-03-23T05:27:46;16.70;99.90
35746;DHT22;21870;42.812;74.628;2024-03-23T05:30:12;16.50;99.90
35746;DHT22;21870;42.812;74.628;2024-03-23T05:32:38;16.70;99.90
35746;DHT22;21870;42.812;74.628;2024-03-23T05:35:07;16.80;99.90
35746;DHT22;21870;42.812;74.628;2024-03-23T05:37:33;16.60;99.90
35746;DHT22;21870;42.812;74.628;2024-03-23T05:40:00;16.50;99.90
35746;DHT22;21870;42.812;74.628;2024-03-23T05:42:26;16.90;99.90
35746;DHT22;21870;42.812;74.628;2024-03-23T05:44:52;17.10;99.90
35746;DHT22;21870;42.812;74.628;2024-03-23T05:47:18;17.10;99.90
35746;DHT22;21870;42.812;74.628;2024-03-23T05:49:46;16.90;99.90
35746;DHT22;21870;42.812;74.628;2024-03-23T05:52:12;16.90;99.90
35746;DHT22;21870;42.812;74.628;2024-03-23T05:54:39;16.90;99.90
35746;DHT22;21870;42.812;74.628;2024-03-23T05:57:06;16.60;99.90
35746;DHT22;21870;42.812;74.628;2024-03-23T05:59:35;16.80;99.90
35746;DHT22;21870;42.812;74.628;2024-03-23T06:02:01;16.90;99.90
35746;DHT22;21870;42.812;74.628;2024-03-23T06:04:27;17.10;99.90
35746;DHT22;21870;42.812;74.628;2024-03-23T06:06:53;17.20;99.90
35746;DHT22;21870;42.812;74.628;2024-03-23T06:09:19;17.30;99.90
35746;DHT22;21870;42.812;74.628;2024-03-23T06:11:45;17.60;99.90
35746;DHT22;21870;42.812;74.628;2024-03-23T06:14:11;17.60;99.90
35746;DHT22;21870;42.812;74.628;2024-03-23T06:16:38;17.30;99.90
35746;DHT22;21870;42.812;74.628;2024-03-23T06:19:04;17.50;99.90
35746;DHT22;21870;42.812;74.628;2024-03-23T06:21:32;17.70;99.90
35746;DHT22;21870;42.812;74.628;2024-03-23T06:23:59;17.80;99.90
35746;DHT22;21870;42.812;74.628;2024-03-23T06:26:25;17.70;99.90
35746;DHT22;21870;42.812;74.628;2024-03-23T06:28:51;17.50;99.90
35746;DHT22;21870;42.812;74.628;2024-03-23T06:31:17;17.30;99.90
35746;DHT22;21870;42.812;74.628;2024-03-23T06:33:43;17.40;99.90
35746;DHT22;21870;42.812;74.628;2024-03-23T06:36:10;17.60;99.90
35746;DHT22;21870;42.812;74.628;2024-03-23T06:38:39;17.50;99.90
35746;DHT22;21870;42.812;74.628;2024-03-23T06:41:05;17.80;99.90
35746;DHT22;21870;42.812;74.628;2024-03-23T06:43:31;17.90;99.90
35746;DHT22;21870;42.812;74.628;2024-03-23T06:45:58;18.00;99.90
35746;DHT22;21870;42.812;74.628;2024-03-23T06:48:24;18.00;99.90
35746;DHT22;21870;42.812;74.628;2024-03-23T06:50:54;17.80;99.90
35746;DHT22;21870;42.812;74.628;2024-03-23T06:53:20;18.00;99.90
35746;DHT22;21870;42.812;74.628;2024-03-23T06:55:51;17.90;99.90
35746;DHT22;21870;42.812;74.628;2024-03-23T06:58:18;18.00;99.90
35746;DHT22;21870;42.812;74.628;2024-03-23T07:00:44;18.40;99.90
35746;DHT22;21870;42.812;74.628;2024-03-23T07:03:10;18.80;99.90
35746;DHT22;21870;42.812;74.628;2024-03-23T07:05:36;18.70;99.90
35746;DHT22;21870;42.812;74.628;2024-03-23T07:08:02;18.60;99.90
35746;DHT22;21870;42.812;74.628;2024-03-23T07:10:28;18.40;99.90
35746;DHT22;21870;42.812;74.628;2024-03-23T07:12:54;18.50;99.90
35746;DHT22;21870;42.812;74.628;2024-03-23T07:15:20;18.60;99.90
35746;DHT22;21870;42.812;74.628;2024-03-23T07:17:47;18.80;99.90
35746;DHT22;21870;42.812;74.628;2024-03-23T07:20:14;19.00;99.90
35746;DHT22;21870;42.812;74.628;2024-03-23T07:22:40;19.20;99.90
35746;DHT22;21870;42.812;74.628;2024-03-23T07:25:06;19.30;99.90
35746;DHT22;21870;42.812;74.628;2024-03-23T07:27:33;19.10;99.90
35746;DHT22;21870;42.812;74.628;2024-03-23T07:29:59;19.00;99.90
35746;DHT22;21870;42.812;74.628;2024-03-23T07:32:27;19.30;99.90
35746;DHT22;21870;42.812;74.628;2024-03-23T07:34:53;19.70;99.90
35746;DHT22;21870;42.812;74.628;2024-03-23T07:37:19;19.70;99.90
35746;DHT22;21870;42.812;74.628;2024-03-23T07:39:45;19.80;99.90
35746;DHT22;21870;42.812;74.628;2024-03-23T07:42:11;19.80;99.90
35746;DHT22;21870;42.812;74.628;2024-03-23T07:44:37;19.90;99.90
35746;DHT22;21870;42.812;74.628;2024-03-23T07:47:03;20.10;99.90
35746;DHT22;21870;42.812;74.628;2024-03-23T07:49:29;20.10;99.90
35746;DHT22;21870;42.812;74.628;2024-03-23T07:51:55;20.10;99.90
35746;DHT22;21870;42.812;74.628;2024-03-23T07:54:24;20.30;99.90
35746;DHT22;21870;42.812;74.628;2024-03-23T07:56:50;20.40;99.90
35746;DHT22;21870;42.812;74.628;2024-03-23T07:59:16;20.30;99.90
35746;DHT22;21870;42.812;74.628;2024-03-23T08:01:44;20.10;99.90
35746;DHT22;21870;42.812;74.628;2024-03-23T08:04:10;20.20;99.90
35746;DHT22;21870;42.812;74.628;2024-03-23T08:06:36;20.20;99.90
35746;DHT22;21870;42.812;74.628;2024-03-23T08:09:03;20.20;99.90
35746;DHT22;21870;42.812;74.628;2024-03-23T08:11:31;20.50;99.90
35746;DHT22;21870;42.812;74.628;2024-03-23T08:13:58;20.50;99.90
35746;DHT22;21870;42.812;74.628;2024-03-23T08:16:24;20.50;99.90
35746;DHT22;21870;42.812;74.628;2024-03-23T08:18:53;20.40;99.90
35746;DHT22;21870;42.812;74.628;2024-03-23T08:21:21;20.60;99.90
35746;DHT22;21870;42.812;74.628;2024-03-23T08:23:47;20.50;99.90
35746;DHT22;21870;42.812;74.628;2024-03-23T08:26:15;20.60;99.90
35746;DHT22;21870;42.812;74.628;2024-03-23T08:28:41;20.60;99.90
35746;DHT22;21870;42.812;74.628;2024-03-23T08:31:10;20.60;99.90
35746;DHT22;21870;42.812;74.628;2024-03-23T08:33:36;20.50;99.90
35746;DHT22;21870;42.812;74.628;2024-03-23T08:36:07;20.50;99.90
35746;DHT22;21870;42.812;74.628;2024-03-23T08:38:34;20.60;99.90
35746;DHT22;21870;42.812;74.628;2024-03-23T08:41:10;20.80;99.90
35746;DHT22;21870;42.812;74.628;2024-03-23T08:43:38;21.00;99.90
35746;DHT22;21870;42.812;74.628;2024-03-23T08:46:09;20.90;99.90
35746;DHT22;21870;42.812;74.628;2024-03-23T08:48:40;20.30;99.90
35746;DHT22;21870;42.812;74.628;2024-03-23T08:51:09;20.60;99.90
35746;DHT22;21870;42.812;74.628;2024-03-23T08:53:36;20.90;99.90
35746;DHT22;21870;42.812;74.628;2024-03-23T08:56:03;21.30;99.90
35746;DHT22;21870;42.812;74.628;2024-03-23T08:58:31;21.20;99.90
35746;DHT22;21870;42.812;74.628;2024-03-23T09:01:03;21.00;99.90
35746;DHT22;21870;42.812;74.628;2024-03-23T09:03:30;20.90;99.50
35746;DHT22;21870;42.812;74.628;2024-03-23T09:05:56;20.70;99.90
35746;DHT22;21870;42.812;74.628;2024-03-23T09:08:24;21.00;99.90
35746;DHT22;21870;42.812;74.628;2024-03-23T09:10:50;21.40;99.90
35746;DHT22;21870;42.812;74.628;2024-03-23T09:13:16;21.60;99.90
35746;DHT22;21870;42.812;74.628;2024-03-23T09:15:50;21.80;99.90
35746;DHT22;21870;42.812;74.628;2024-03-23T09:18:16;21.90;99.90
35746;DHT22;21870;42.812;74.628;2024-03-23T09:20:43;21.50;99.90
35746;DHT22;21870;42.812;74.628;2024-03-23T09:23:09;21.20;99.90
35746;DHT22;21870;42.812;74.628;2024-03-23T09:25:38;21.20;99.90
35746;DHT22;21870;42.812;74.628;2024-03-23T09:28:08;21.50;99.90
35746;DHT22;21870;42.812;74.628;2024-03-23T09:30:35;21.70;99.90
35746;DHT22;21870;42.812;74.628;2024-03-23T09:33:02;22.00;99.90
35746;DHT22;21870;42.812;74.628;2024-03-23T09:35:28;22.10;99.90
35746;DHT22;21870;42.812;74.628;2024-03-23T09:37:54;22.20;99.90
35746;DHT22;21870;42.812;74.628;2024-03-23T09:40:20;22.10;98.30
35746;DHT22;21870;42.812;74.628;2024-03-23T09:42:50;22.10;97.40
35746;DHT22;21870;42.812;74.628;2024-03-23T09:45:27;22.00;95.50
35746;DHT22;21870;42.812;74.628;2024-03-23T09:47:55;22.10;95.60
35746;DHT22;21870;42.812;74.628;2024-03-23T09:50:22;22.00;95.10
35746;DHT22;21870;42.812;74.628;2024-03-23T09:52:48;21.90;98.90
35746;DHT22;21870;42.812;74.628;2024-03-23T09:55:15;22.00;99.40
35746;DHT22;21870;42.812;74.628;2024-03-23T09:57:41;22.10;96.50
35746;DHT22;21870;42.812;74.628;2024-03-23T10:00:08;22.00;97.50
35746;DHT22;21870;42.812;74.628;2024-03-23T10:02:35;21.80;96.90
35746;DHT22;21870;42.812;74.628;2024-03-23T10:05:01;21.80;97.30
35746;DHT22;21870;42.812;74.628;2024-03-23T10:07:27;22.00;97.90
35746;DHT22;21870;42.812;74.628;2024-03-23T10:09:54;21.90;96.10
35746;DHT22;21870;42.812;74.628;2024-03-23T10:12:21;21.90;95.40
35746;DHT22;21870;42.812;74.628;2024-03-23T10:14:50;21.90;96.00
35746;DHT22;21870;42.812;74.628;2024-03-23T10:17:21;22.10;96.20
35746;DHT22;21870;42.812;74.628;2024-03-23T10:19:52;22.10;95.10
35746;DHT22;21870;42.812;74.628;2024-03-23T10:22:19;22.10;96.00
35746;DHT22;21870;42.812;74.628;2024-03-23T10:24:45;22.20;94.00
35746;DHT22;21870;42.812;74.628;2024-03-23T10:27:19;22.30;93.80
35746;DHT22;21870;42.812;74.628;2024-03-23T10:29:49;22.20;93.50
35746;DHT22;21870;42.812;74.628;2024-03-23T10:32:18;21.80;94.10
35746;DHT22;21870;42.812;74.628;2024-03-23T10:34:45;21.90;94.00
35746;DHT22;21870;42.812;74.628;2024-03-23T10:37:11;22.10;94.50
35746;DHT22;21870;42.812;74.628;2024-03-23T10:39:41;22.30;96.00
35746;DHT22;21870;42.812;74.628;2024-03-23T10:42:08;22.30;93.70
35746;DHT22;21870;42.812;74.628;2024-03-23T10:44:38;22.30;93.90
35746;DHT22;21870;42.812;74.628;2024-03-23T10:47:05;22.20;92.70
35746;DHT22;21870;42.812;74.628;2024-03-23T10:49:35;22.10;94.10
35746;DHT22;21870;42.812;74.628;2024-03-23T10:52:05;22.00;95.40
35746;DHT22;21870;42.812;74.628;2024-03-23T10:54:32;22.00;92.40
35746;DHT22;21870;42.812;74.628;2024-03-23T10:59:34;21.90;93.00
35746;DHT22;21870;42.812;74.628;2024-03-23T11:02:00;21.60;94.60
35746;DHT22;21870;42.812;74.628;2024-03-23T11:04:35;21.40;94.20
35746;DHT22;21870;42.812;74.628;2024-03-23T11:07:02;21.20;93.60
35746;DHT22;21870;42.812;74.628;2024-03-23T11:09:41;21.10;93.70
35746;DHT22;21870;42.812;74.628;2024-03-23T11:17:31;20.80;93.50
35746;DHT22;21870;42.812;74.628;2024-03-23T11:19:59;20.60;94.50
35746;DHT22;21870;42.812;74.628;2024-03-23T11:27:47;20.50;95.80
35746;DHT22;21870;42.812;74.628;2024-03-23T11:30:21;20.40;95.70
35746;DHT22;21870;42.812;74.628;2024-03-23T11:32:49;20.30;97.30
35746;DHT22;21870;42.812;74.628;2024-03-23T11:35:41;20.20;98.40
35746;DHT22;21870;42.812;74.628;2024-03-23T11:38:15;20.20;98.70
35746;DHT22;21870;42.812;74.628;2024-03-23T11:40:45;20.10;97.70
35746;DHT22;21870;42.812;74.628;2024-03-23T11:43:19;20.00;99.20
35746;DHT22;21870;42.812;74.628;2024-03-23T11:45:50;19.90;99.90
35746;DHT22;21870;42.812;74.628;2024-03-23T11:48:22;19.60;99.40
35746;DHT22;21870;42.812;74.628;2024-03-23T11:50:50;19.50;99.90
35746;DHT22;21870;42.812;74.628;2024-03-23T11:53:18;19.30;99.90
35746;DHT22;21870;42.812;74.628;2024-03-23T11:58:12;19.00;99.90
35746;DHT22;21870;42.812;74.628;2024-03-23T12:00:39;18.80;99.90
35746;DHT22;21870;42.812;74.628;2024-03-23T12:03:06;18.70;99.90
35746;DHT22;21870;42.812;74.628;2024-03-23T12:05:33;18.50;99.90
35746;DHT22;21870;42.812;74.628;2024-03-23T12:08:21;18.40;99.90
35746;DHT22;21870;42.812;74.628;2024-03-23T12:10:52;18.30;99.90
35746;DHT22;21870;42.812;74.628;2024-03-23T12:13:20;18.20;99.90
35746;DHT22;21870;42.812;74.628;2024-03-23T12:15:51;18.10;99.90
35746;DHT22;21870;42.812;74.628;2024-03-23T12:18:17;17.80;99.90
35746;DHT22;21870;42.812;74.628;2024-03-23T12:20:49;17.50;99.90
35746;DHT22;21870;42.812;74.628;2024-03-23T12:23:15;17.50;99.90
35746;DHT22;21870;42.812;74.628;2024-03-23T12:25:41;17.40;99.90
35746;DHT22;21870;42.812;74.628;2024-03-23T12:28:08;17.20;99.90
35746;DHT22;21870;42.812;74.628;2024-03-23T12:30:38;17.10;99.90
35746;DHT22;21870;42.812;74.628;2024-03-23T12:33:05;17.10;99.90
35746;DHT22;21870;42.812;74.628;2024-03-23T12:35:32;17.00;99.90
35746;DHT22;21870;42.812;74.628;2024-03-23T12:37:58;16.90;99.90
35746;DHT22;21870;42.812;74.628;2024-03-23T12:40:24;16.80;99.90
35746;DHT22;21870;42.812;74.628;2024-03-23T12:42:50;16.80;99.90
35746;DHT22;21870;42.812;74.628;2024-03-23T12:45:16;16.70;99.90
35746;DHT22;21870;42.812;74.628;2024-03-23T12:47:42;16.70;99.90
35746;DHT22;21870;42.812;74.628;2024-03-23T12:50:09;16.70;99.90
35746;DHT22;21870;42.812;74.628;2024-03-23T12:52:36;16.60;99.90
35746;DHT22;21870;42.812;74.628;2024-03-23T12:55:02;16.50;99.90
35746;DHT22;21870;42.812;74.628;2024-03-23T12:57:29;16.50;99.90
35746;DHT22;21870;42.812;74.628;2024-03-23T12:59:55;16.40;99.90
35746;DHT22;21870;42.812;74.628;2024-03-23T13:02:22;16.20;99.90
35746;DHT22;21870;42.812;74.628;2024-03-23T13:04:52;16.00;99.90
35746;DHT22;21870;42.812;74.628;2024-03-23T13:07:19;15.90;99.90
35746;DHT22;21870;42.812;74.628;2024-03-23T13:09:46;15.80;99.90
35746;DHT22;21870;42.812;74.628;2024-03-23T13:12:12;15.70;99.90
35746;DHT22;21870;42.812;74.628;2024-03-23T13:14:39;15.70;99.90
35746;DHT22;21870;42.812;74.628;2024-03-23T13:17:06;15.70;99.90
35746;DHT22;21870;42.812;74.628;2024-03-23T13:19:32;15.80;99.90
35746;DHT22;21870;42.812;74.628;2024-03-23T13:21:59;15.70;99.90
35746;DHT22;21870;42.812;74.628;2024-03-23T13:24:27;15.50;99.90
35746;DHT22;21870;42.812;74.628;2024-03-23T13:26:54;15.50;99.90
35746;DHT22;21870;42.812;74.628;2024-03-23T13:29:20;15.50;99.90
35746;DHT22;21870;42.812;74.628;2024-03-23T13:31:47;15.50;99.90
35746;DHT22;21870;42.812;74.628;2024-03-23T13:34:13;15.50;99.90
35746;DHT22;21870;42.812;74.628;2024-03-23T13:36:44;15.50;99.90
35746;DHT22;21870;42.812;74.628;2024-03-23T13:39:11;15.40;99.90
35746;DHT22;21870;42.812;74.628;2024-03-23T13:41:41;15.40;99.90
35746;DHT22;21870;42.812;74.628;2024-03-23T13:44:08;15.40;99.90
35746;DHT22;21870;42.812;74.628;2024-03-23T13:46:36;15.40;99.90
35746;DHT22;21870;42.812;74.628;2024-03-23T13:49:03;15.40;99.90
35746;DHT22;21870;42.812;74.628;2024-03-23T13:51:29;15.30;99.90
35746;DHT22;21870;42.812;74.628;2024-03-23T13:53:56;15.20;99.90
35746;DHT22;21870;42.812;74.628;2024-03-23T13:56:23;15.20;99.90
35746;DHT22;21870;42.812;74.628;2024-03-23T13:58:52;15.20;99.90
35746;DHT22;21870;42.812;74.628;2024-03-23T14:01:18;15.10;99.90
35746;DHT22;21870;42.812;74.628;2024-03-23T14:03:44;15.00;99.90
35746;DHT22;21870;42.812;74.628;2024-03-23T14:06:11;14.90;99.90
35746;DHT22;21870;42.812;74.628;2024-03-23T14:08:38;14.90;99.90
35746;DHT22;21870;42.812;74.628;2024-03-23T14:11:08;14.80;99.90
35746;DHT22;21870;42.812;74.628;2024-03-23T14:13:37;14.80;99.90
35746;DHT22;21870;42.812;74.628;2024-03-23T14:16:03;14.70;99.90
35746;DHT22;21870;42.812;74.628;2024-03-23T14:18:29;14.70;99.90
35746;DHT22;21870;42.812;74.628;2024-03-23T14:21:00;14.70;99.90
35746;DHT22;21870;42.812;74.628;2024-03-23T14:23:30;14.70;99.90
35746;DHT22;21870;42.812;74.628;2024-03-23T14:26:00;14.70;99.90
35746;DHT22;21870;42.812;74.628;2024-03-23T14:28:26;14.70;99.90
35746;DHT22;21870;42.812;74.628;2024-03-23T14:30:55;14.60;99.90
35746;DHT22;21870;42.812;74.628;2024-03-23T14:33:21;14.50;99.90
35746;DHT22;21870;42.812;74.628;2024-03-23T14:35:56;14.50;99.90
35746;DHT22;21870;42.812;74.628;2024-03-23T14:38:23;14.30;99.90
35746;DHT22;21870;42.812;74.628;2024-03-23T14:40:50;14.30;99.90
35746;DHT22;21870;42.812;74.628;2024-03-23T14:43:18;14.20;99.90
35746;DHT22;21870;42.812;74.628;2024-03-23T14:46:10;14.20;99.90
35746;DHT22;21870;42.812;74.628;2024-03-23T14:48:36;14.20;99.90
35746;DHT22;21870;42.812;74.628;2024-03-23T14:51:03;14.00;99.90
35746;DHT22;21870;42.812;74.628;2024-03-23T14:53:38;13.90;99.90
35746;DHT22;21870;42.812;74.628;2024-03-23T14:56:06;13.90;99.90
35746;DHT22;21870;42.812;74.628;2024-03-23T14:58:32;13.80;99.90
35746;DHT22;21870;42.812;74.628;2024-03-23T15:01:09;13.70;99.90
35746;DHT22;21870;42.812;74.628;2024-03-23T15:03:39;13.70;99.90
35746;DHT22;21870;42.812;74.628;2024-03-23T15:06:06;13.70;99.90
35746;DHT22;21870;42.812;74.628;2024-03-23T15:08:32;13.70;99.90
35746;DHT22;21870;42.812;74.628;2024-03-23T15:11:01;13.60;99.90
35746;DHT22;21870;42.812;74.628;2024-03-23T15:13:34;13.50;99.90
35746;DHT22;21870;42.812;74.628;2024-03-23T15:16:00;13.40;99.90
35746;DHT22;21870;42.812;74.628;2024-03-23T15:18:29;13.40;99.90
35746;DHT22;21870;42.812;74.628;2024-03-23T15:21:00;13.30;99.90
35746;DHT22;21870;42.812;74.628;2024-03-23T15:23:31;13.20;99.90
35746;DHT22;21870;42.812;74.628;2024-03-23T15:25:58;13.10;99.90
35746;DHT22;21870;42.812;74.628;2024-03-23T15:28:25;13.10;99.90
35746;DHT22;21870;42.812;74.628;2024-03-23T15:30:57;13.00;99.90
35746;DHT22;21870;42.812;74.628;2024-03-23T15:33:24;13.00;99.90
35746;DHT22;21870;42.812;74.628;2024-03-23T15:35:50;13.00;99.90
35746;DHT22;21870;42.812;74.628;2024-03-23T15:38:16;13.00;99.90
35746;DHT22;21870;42.812;74.628;2024-03-23T15:40:53;12.90;99.90
35746;DHT22;21870;42.812;74.628;2024-03-23T15:43:19;13.00;99.90
35746;DHT22;21870;42.812;74.628;2024-03-23T15:46:08;13.00;99.90
35746;DHT22;21870;42.812;74.628;2024-03-23T15:48:36;12.90;99.90
35746;DHT22;21870;42.812;74.628;2024-03-23T15:51:03;12.90;99.90
35746;DHT22;21870;42.812;74.628;2024-03-23T15:53:30;12.90;99.90
35746;DHT22;21870;42.812;74.628;2024-03-23T15:56:01;12.90;99.90
35746;DHT22;21870;42.812;74.628;2024-03-23T15:58:29;12.90;99.90
35746;DHT22;21870;42.812;74.628;2024-03-23T16:03:28;12.80;99.90
35746;DHT22;21870;42.812;74.628;2024-03-23T16:06:00;12.80;99.90
35746;DHT22;21870;42.812;74.628;2024-03-23T16:08:26;12.80;99.90
35746;DHT22;21870;42.812;74.628;2024-03-23T16:10:53;12.70;99.90
35746;DHT22;21870;42.812;74.628;2024-03-23T16:13:20;12.70;99.90
35746;DHT22;21870;42.812;74.628;2024-03-23T16:15:55;12.60;99.90
35746;DHT22;21870;42.812;74.628;2024-03-23T16:18:22;12.50;99.90
35746;DHT22;21870;42.812;74.628;2024-03-23T16:21:04;12.40;99.90
35746;DHT22;21870;42.812;74.628;2024-03-23T16:23:32;12.30;99.90
35746;DHT22;21870;42.812;74.628;2024-03-23T16:25:58;12.20;99.90
35746;DHT22;21870;42.812;74.628;2024-03-23T16:28:36;12.20;99.90
35746;DHT22;21870;42.812;74.628;2024-03-23T16:31:03;12.10;99.90
35746;DHT22;21870;42.812;74.628;2024-03-23T16:33:29;12.00;99.90